21 a 26/10 - Lluvias y tormentas para (casi) todos

Avatar de Usuario
Ale de Castelar
Mensajes: 28410
Registrado: Sab Mar 03, 2012 12:25 pm
Ubicación: Caballito

Re: 21 a 29/10 - Lluvias y tormentas para (casi) todos

Mensaje por Ale de Castelar » Dom Oct 25, 2020 11:53 pm

Saenz Peña, Chaco


Avatar de Usuario
Juan José Frías
Mensajes: 383
Registrado: Sab Abr 19, 2014 8:15 pm
Ubicación: 26°31′00″S 61°10′00″O (Pampa del Infierno)-Chaco, Argentina.

Re: 21 a 29/10 - Lluvias y tormentas para (casi) todos

Mensaje por Juan José Frías » Lun Oct 26, 2020 12:00 am

Ale de Castelar escribió:
Dom Oct 25, 2020 11:47 pm
Pampa del Infierno
Ah mira imágenes de Pampa! :D

Avatar de Usuario
Diecha
Mensajes: 15103
Registrado: Jue Ago 25, 2011 9:31 pm
Ubicación: Lomas de Zamora

Re: 21 a 29/10 - Lluvias y tormentas para (casi) todos

Mensaje por Diecha » Lun Oct 26, 2020 12:16 am



Última edición por Diecha el Lun Oct 26, 2020 12:19 am, editado 1 vez en total.

Avatar de Usuario
Ezequiel1995
Mensajes: 1810
Registrado: Mar Nov 12, 2019 4:50 pm
Ubicación: Merlo, Buenos Aires
Contactar:

Re: 21 a 29/10 - Lluvias y tormentas para (casi) todos

Mensaje por Ezequiel1995 » Lun Oct 26, 2020 12:18 am

Tremenda línea!
Bien para los incendios
#MuerteALasLineas (by Fedex)
Aplicación Gustfront! 2.5

Avatar de Usuario
Diecha
Mensajes: 15103
Registrado: Jue Ago 25, 2011 9:31 pm
Ubicación: Lomas de Zamora

Re: 21 a 29/10 - Lluvias y tormentas para (casi) todos

Mensaje por Diecha » Lun Oct 26, 2020 12:34 am

Imagen

Imagen
Spoiler
Mostrar
Imagen
Imagen
Imagen
Imagen
Imagen
Imagen
Imagen
Imagen
Imagen
Imagen
Imagen
Imagen
Imagen
Imagen
Última edición por Diecha el Lun Oct 26, 2020 11:37 am, editado 1 vez en total.

Avatar de Usuario
Diecha
Mensajes: 15103
Registrado: Jue Ago 25, 2011 9:31 pm
Ubicación: Lomas de Zamora

Re: 21 a 29/10 - Lluvias y tormentas para (casi) todos

Mensaje por Diecha » Lun Oct 26, 2020 1:18 am

- San Fernando 01 hs: SADF 260400Z 20010KT CAVOK 17/16 Q1010
- Aeroparque 01 hs: SABE 260400Z VRB04KT 9999 SCT012 SCT100 18/16 Q1009
- Ezeiza 01 hs: SAEZ 260400Z 23007KT 9999 SCT010 BKN100 16/16 Q1010

Imagen
Imagen

Avatar de Usuario
Santiago Corinaldesi
Mensajes: 2062
Registrado: Dom Jul 28, 2013 8:34 pm
Ubicación: Buenos Aires
Contactar:

Re: 21 a 29/10 - Lluvias y tormentas para (casi) todos

Mensaje por Santiago Corinaldesi » Lun Oct 26, 2020 1:25 am

Salta.

MetRA - Meteorología de la República Argentina
Facebook: www.facebook.com/MetRAnoticias
Twitter: www.twitter.com/MetRAnoticias
Instagram: www.instagram.com/metranoticias

Avatar de Usuario
Santiago Corinaldesi
Mensajes: 2062
Registrado: Dom Jul 28, 2013 8:34 pm
Ubicación: Buenos Aires
Contactar:

Re: 21 a 29/10 - Lluvias y tormentas para (casi) todos

Mensaje por Santiago Corinaldesi » Lun Oct 26, 2020 2:09 am

Reportes de daños por las tormentas en:

- Añatuya, Sgo del Estero.
- Mercedes y Goya, Corrientes.
- Resistencia, Chaco.
- Formosa Capital.

En general se destacan voladuras de techos, caída de tendido eléctrico y árboles. En el caso de Formosa, hay barrios recientemente sin energía eléctrica y ventanales rotos.


Formosa..
MetRA - Meteorología de la República Argentina
Facebook: www.facebook.com/MetRAnoticias
Twitter: www.twitter.com/MetRAnoticias
Instagram: www.instagram.com/metranoticias

Avatar de Usuario
Ezequiel1995
Mensajes: 1810
Registrado: Mar Nov 12, 2019 4:50 pm
Ubicación: Merlo, Buenos Aires
Contactar:

Re: 21 a 29/10 - Lluvias y tormentas para (casi) todos

Mensaje por Ezequiel1995 » Lun Oct 26, 2020 3:02 am

Se levantó mucho viento
Calculo que ya es el FF
#MuerteALasLineas (by Fedex)
Aplicación Gustfront! 2.5

Avatar de Usuario
Diecha
Mensajes: 15103
Registrado: Jue Ago 25, 2011 9:31 pm
Ubicación: Lomas de Zamora

Re: 21 a 29/10 - Lluvias y tormentas para (casi) todos

Mensaje por Diecha » Lun Oct 26, 2020 11:35 am

Buenas.

Imagen

Imagen
Spoiler
Mostrar
Imagen
Imagen
Imagen
Imagen
Imagen
Imagen
Imagen
Imagen
Imagen
Imagen
Imagen
Imagen
Imagen
Última edición por Diecha el Lun Oct 26, 2020 12:17 pm, editado 1 vez en total.

Responder